Terminal Aerodrome Forecast
Issued by NWS

Home | Current Version | Previous Version | Text Only | Print | Product List | Glossary On
Versions: 1 2 3 4 5 6 7 8 9 10 11 12 13 14 15 16 17 18 19
526
FTUS43 KMQT 082323
TAFSAW
TAF
KSAW 082323Z 0900/0924 32009KT 4SM -SHSN BKN030
     FM090800 32011KT P6SM VCSH BKN030
     FM091300 31010KT P6SM VCSH BKN035
     FM091600 31012KT P6SM VCSH OVC025
     FM092200 31007KT P6SM BKN035=

USA.gov is the U.S. government's official web portal to all federal, state and local government web resources and services.